Time;durP1;ratioP1;P1;durP2;ratioP2;P2;SDS_P1;SDS_P2;PMS_P1;PMS_P2;Temp;Humidity;BMP_temperature;BMP_pressure;BME280_temperature;BME280_humidity;BME280_pressure;Samples;Min_cycle;Max_cycle;Signal;HPM_P1;HPM_P2
2022/09/11 00:01:39;;;;;;;2.23;2.03;;;;;;;13.41;94.96;101662.44;5056334;28;20025;-90
2022/09/11 00:04:05;;;;;;;2.30;2.10;;;;;;;13.42;95.00;101666.75;5056378;28;20075;-90
2022/09/11 00:06:30;;;;;;;2.67;2.30;;;;;;;13.44;94.91;101669.38;5055918;28;20017;-91
2022/09/11 00:09:01;;;;;;;2.60;2.30;;;;;;;13.44;95.12;101672.81;5055686;28;21058;-91
2022/09/11 00:11:39;;;;;;;2.67;2.20;;;;;;;13.43;95.15;101671.09;5056434;28;20021;-91
2022/09/11 00:14:05;;;;;;;2.90;2.50;;;;;;;13.42;94.93;101665.91;5056655;28;20020;-90
2022/09/11 00:16:34;;;;;;;3.77;2.70;;;;;;;13.38;94.92;101665.06;5056116;28;20472;-90
2022/09/11 00:19:03;;;;;;;3.58;2.70;;;;;;;13.34;94.83;101657.31;5055981;28;20271;-91
2022/09/11 00:21:39;;;;;;;2.88;2.40;;;;;;;13.31;94.94;101660.81;5055869;28;20017;-90
2022/09/11 00:24:07;;;;;;;;;;;;;;;13.31;94.88;101665.16;5071188;28;20029;-91
2022/09/11 00:26:33;;;;;;;4.57;3.05;;;;;;;13.28;95.04;101673.91;5075264;28;20380;-91
2022/09/11 00:29:00;;;;;;;4.53;3.10;;;;;;;13.25;94.85;101673.94;5074958;28;20036;-90
2022/09/11 00:31:28;;;;;;;4.55;3.00;;;;;;;13.23;94.99;101670.47;5075865;28;20029;-89
2022/09/11 00:33:55;;;;;;;3.95;2.92;;;;;;;13.20;94.92;101673.13;5075249;28;20070;-90
2022/09/11 00:36:34;;;;;;;4.22;3.00;;;;;;;13.18;94.98;101673.16;5093267;28;20040;-90
2022/09/11 00:39:00;;;;;;;4.43;3.10;;;;;;;13.17;94.93;101665.34;5095939;28;20055;-90
2022/09/11 00:41:27;;;;;;;3.93;2.90;;;;;;;13.16;94.86;101672.28;5095216;28;20047;-90
2022/09/11 00:44:06;;;;;;;4.38;3.10;;;;;;;13.15;95.01;101661.91;5095398;28;20027;-91
2022/09/11 00:46:43;;;;;;;4.93;3.35;;;;;;;13.10;95.06;101673.22;5095964;28;20023;-90
2022/09/11 00:49:31;;;;;;;3.83;3.00;;;;;;;13.10;95.07;101675.84;5096122;28;20038;-91
2022/09/11 00:52:07;;;;;;;4.80;3.47;;;;;;;13.08;95.08;101684.56;5084045;28;20085;-90
2022/09/11 00:54:48;;;;;;;5.47;3.60;;;;;;;13.05;95.14;101680.25;5095618;28;20020;-90
2022/09/11 00:57:15;;;;;;;4.28;3.30;;;;;;;13.03;94.83;101687.22;5095551;28;20076;-90
2022/09/11 00:59:43;;;;;;;4.75;3.17;;;;;;;13.03;94.79;101684.63;5095420;28;20111;-90
2022/09/11 01:02:19;;;;;;;4.25;2.90;;;;;;;13.01;94.92;101681.19;5095538;28;20055;-90
2022/09/11 01:04:44;;;;;;;3.72;2.92;;;;;;;12.96;94.77;101677.75;5095157;28;20051;-90
2022/09/11 01:07:12;;;;;;;2.93;2.60;;;;;;;12.94;94.75;101683.00;5094992;28;20392;-90
2022/09/11 01:09:38;;;;;;;4.40;2.88;;;;;;;12.92;94.84;101689.09;5095014;28;20016;-90
2022/09/11 01:12:12;;;;;;;3.77;3.00;;;;;;;12.92;94.87;101684.75;5095040;28;20116;-90
2022/09/11 01:15:02;;;;;;;3.85;2.80;;;;;;;12.90;95.05;101699.53;5094785;28;20028;-91
2022/09/11 01:17:46;;;;;;;3.50;2.65;;;;;;;12.87;95.13;101699.59;5095111;28;20104;-90
2022/09/11 01:20:21;;;;;;;3.58;2.78;;;;;;;12.85;95.37;101696.13;5094916;28;20106;-90
2022/09/11 01:23:22;;;;;;;2.92;2.40;;;;;;;12.84;95.47;101697.00;5081444;28;20024;-90
2022/09/11 01:26:25;;;;;;;3.92;2.70;;;;;;;12.85;95.37;101693.53;5093913;28;20028;-90
2022/09/11 01:29:06;;;;;;;3.15;2.53;;;;;;;12.85;95.50;101697.84;5094669;28;20476;-90
2022/09/11 01:32:03;;;;;;;4.30;2.90;;;;;;;12.85;95.38;101703.06;5094712;28;20024;-90
2022/09/11 01:34:46;;;;;;;5.20;3.05;;;;;;;12.84;95.40;101697.00;5097017;28;20036;-89
2022/09/11 01:37:24;;;;;;;4.63;2.80;;;;;;;12.85;95.30;101698.72;5114940;28;20027;-90
2022/09/11 01:39:59;;;;;;;3.63;2.72;;;;;;;12.85;95.40;101697.84;5112431;28;20456;-90
2022/09/11 01:42:30;;;;;;;3.38;2.70;;;;;;;12.82;95.38;101710.06;5114987;28;20482;-90
2022/09/11 01:44:56;;;;;;;3.08;2.40;;;;;;;12.81;95.61;101708.31;5113819;28;20019;-88
2022/09/11 01:47:22;;;;;;;3.67;2.85;;;;;;;12.82;95.25;101711.78;5114029;28;20028;-90
2022/09/11 01:49:55;;;;;;;3.40;2.67;;;;;;;12.80;95.20;101711.81;5114964;28;20023;-90
2022/09/11 01:52:26;;;;;;;3.90;2.75;;;;;;;12.79;95.62;101707.47;5115115;28;20099;-90
2022/09/11 01:55:30;;;;;;;3.88;2.85;;;;;;;12.79;95.63;101707.47;5113914;28;20468;-90
2022/09/11 01:58:14;;;;;;;3.92;2.80;;;;;;;12.79;95.32;101707.47;5114720;28;20144;-90
2022/09/11 02:00:44;;;;;;;3.80;2.78;;;;;;;12.77;95.66;101706.63;5114679;28;20031;-90
2022/09/11 02:03:27;;;;;;;3.67;2.70;;;;;;;12.76;95.64;101704.03;5114626;28;20043;-90
2022/09/11 02:06:06;;;;;;;3.20;2.55;;;;;;;12.75;95.71;101703.16;5114214;28;20020;-90
2022/09/11 02:08:46;;;;;;;3.22;2.60;;;;;;;12.73;95.64;101707.53;5114155;28;20031;-90
2022/09/11 02:11:14;;;;;;;3.95;3.00;;;;;;;12.71;95.44;101708.41;5114038;28;20023;-90
2022/09/11 02:13:48;;;;;;;5.68;3.53;;;;;;;12.71;95.64;101708.41;5094009;28;20428;-90
2022/09/11 02:16:34;;;;;;;5.63;3.50;;;;;;;12.71;95.37;101711.03;5111052;28;20114;-90
2022/09/11 02:19:05;;;;;;;5.18;3.45;;;;;;;12.69;95.51;101705.84;5114563;28;20035;-90
2022/09/11 02:21:32;;;;;;;6.18;3.80;;;;;;;12.66;95.52;101708.47;5114163;28;20059;-91
2022/09/11 02:23:58;;;;;;;5.43;3.60;;;;;;;12.67;95.86;101713.66;5110727;28;20023;-90
2022/09/11 02:26:25;;;;;;;6.60;3.85;;;;;;;12.65;95.27;101718.03;5094006;28;20475;-90
2022/09/11 02:28:52;;;;;;;5.70;3.50;;;;;;;12.62;95.30;101725.00;5093771;28;20083;-90
2022/09/11 02:31:21;;;;;;;5.63;3.53;;;;;;;12.57;95.26;101719.84;5094160;28;20024;-90
2022/09/11 02:33:47;;;;;;;5.28;3.50;;;;;;;12.56;95.30;101727.66;5093494;28;20028;-90
2022/09/11 02:36:31;;;;;;;4.85;3.10;;;;;;;12.53;95.40;101728.56;5093201;28;20551;-90
2022/09/11 02:39:14;;;;;;;5.57;3.55;;;;;;;12.51;95.51;101722.50;5093451;28;20501;-89
2022/09/11 02:41:57;;;;;;;5.32;3.40;;;;;;;12.49;95.43;101719.94;5093485;28;20024;-90
2022/09/11 02:44:47;;;;;;;5.78;3.78;;;;;;;12.48;95.48;101727.75;5093625;28;20031;-90
2022/09/11 02:47:42;;;;;;;6.18;3.80;;;;;;;12.47;95.35;101726.00;5093917;28;20074;-90
2022/09/11 02:50:32;;;;;;;5.93;3.60;;;;;;;12.43;95.41;101722.56;5093646;28;20035;-91
2022/09/11 02:53:13;;;;;;;6.13;3.83;;;;;;;12.43;95.32;101732.13;5094057;28;20141;-91
2022/09/11 02:55:47;;;;;;;7.35;4.25;;;;;;;12.44;95.40;101728.66;5094452;28;20028;-90
2022/09/11 02:58:22;;;;;;;5.60;3.70;;;;;;;12.41;95.32;101726.94;5097469;28;20035;-91
2022/09/11 03:00:47;;;;;;;7.63;4.30;;;;;;;12.39;95.19;101730.44;5097742;28;20461;-91
2022/09/11 03:03:13;;;;;;;6.27;3.90;;;;;;;12.33;95.29;101726.97;5097646;28;20032;-90
2022/09/11 03:05:39;;;;;;;5.53;3.63;;;;;;;12.32;95.19;101734.81;5097690;28;20098;-90
2022/09/11 03:08:06;;;;;;;7.63;3.90;;;;;;;12.29;95.21;101737.44;5097889;28;20056;-90
2022/09/11 03:10:33;;;;;;;6.47;4.03;;;;;;;12.27;95.30;101744.41;5109230;28;20494;-91
2022/09/11 03:12:58;;;;;;;5.50;3.55;;;;;;;12.26;95.34;101746.16;5117786;28;20024;-91
2022/09/11 03:15:24;;;;;;;5.87;3.70;;;;;;;12.26;95.56;101745.28;5117410;28;20031;-91
2022/09/11 03:17:50;;;;;;;6.35;3.85;;;;;;;12.27;95.66;101739.22;5117242;28;20027;-90
2022/09/11 03:20:15;;;;;;;4.80;3.40;;;;;;;12.25;95.25;101739.22;5117954;28;20023;-90
2022/09/11 03:22:41;;;;;;;5.40;3.33;;;;;;;12.21;95.31;101745.34;5117699;28;20020;-91
2022/09/11 03:25:13;;;;;;;6.33;3.90;;;;;;;12.19;95.38;101740.13;5117717;28;20108;-91
2022/09/11 03:27:40;;;;;;;5.72;3.47;;;;;;;12.18;95.24;101734.94;5117191;28;20476;-91
2022/09/11 03:30:06;;;;;;;6.03;3.83;;;;;;;12.18;95.45;101740.16;5117620;28;20103;-90
2022/09/11 03:32:32;;;;;;;6.07;3.97;;;;;;;12.19;95.41;101734.06;5117329;28;20074;-91
2022/09/11 03:34:57;;;;;;;5.50;3.47;;;;;;;12.20;95.23;101746.22;5116616;28;20031;-90
2022/09/11 03:37:22;;;;;;;6.60;3.83;;;;;;;12.21;95.44;101737.53;5110307;28;20024;-91
2022/09/11 03:39:48;;;;;;;6.10;3.90;;;;;;;12.22;95.35;101743.56;5096688;28;20119;-90
2022/09/11 03:42:13;;;;;;;8.00;4.30;;;;;;;12.23;95.32;101748.75;5096894;28;20020;-90
2022/09/11 03:44:39;;;;;;;6.33;3.63;;;;;;;12.23;95.20;101748.75;5096938;28;20427;-89
2022/09/11 03:47:05;;;;;;;4.57;3.23;;;;;;;12.20;95.35;101757.47;5096538;28;20016;-91
2022/09/11 03:49:30;;;;;;;4.70;3.30;;;;;;;12.17;95.44;101747.06;5097165;28;20339;-91
2022/09/11 03:52:05;;;;;;;4.73;3.33;;;;;;;12.17;95.54;101752.28;5096517;28;20046;-90
2022/09/11 03:54:31;;;;;;;5.20;3.58;;;;;;;12.17;95.60;101747.06;5096656;28;20361;-91
2022/09/11 03:56:57;;;;;;;4.37;3.20;;;;;;;12.20;95.59;101746.22;5096924;28;20024;-91
2022/09/11 03:59:24;;;;;;;4.40;3.17;;;;;;;12.23;95.46;101747.91;5096604;28;20034;-90
2022/09/11 04:01:49;;;;;;;4.32;3.08;;;;;;;12.25;95.62;101753.97;5096555;28;20142;-90
2022/09/11 04:04:27;;;;;;;3.80;2.90;;;;;;;12.24;95.67;101753.09;5098794;28;20437;-91
2022/09/11 04:06:52;;;;;;;4.80;3.25;;;;;;;12.23;95.71;101747.91;5116187;27;20035;-90
2022/09/11 04:09:17;;;;;;;3.20;2.70;;;;;;;12.24;95.51;101752.25;5116410;28;20023;-90
2022/09/11 04:11:42;;;;;;;3.33;2.60;;;;;;;12.24;95.70;101753.09;5116307;28;20023;-90
2022/09/11 04:14:08;;;;;;;3.97;3.07;;;;;;;12.25;95.81;101752.22;5116375;28;20047;-90
2022/09/11 04:16:43;;;;;;;3.53;2.93;;;;;;;12.29;95.79;101758.25;5117038;28;20099;-90
2022/09/11 04:19:10;;;;;;;4.03;3.00;;;;;;;12.28;95.83;101756.53;5116881;28;20031;-91
2022/09/11 04:21:35;;;;;;;3.45;2.80;;;;;;;12.28;95.90;101748.72;5116431;28;20023;-91
2022/09/11 04:24:01;;;;;;;3.13;2.70;;;;;;;12.29;95.93;101750.44;5116362;28;20026;-90
2022/09/11 04:26:29;;;;;;;2.83;2.50;;;;;;;12.30;96.09;101753.06;5116712;28;20491;-91
2022/09/11 04:29:02;;;;;;;3.03;2.70;;;;;;;12.28;95.91;101744.41;5113849;27;20047;-90
2022/09/11 04:31:28;;;;;;;3.20;2.60;;;;;;;12.29;96.19;101750.44;5096069;28;20034;-90
2022/09/11 04:33:54;;;;;;;3.17;2.70;;;;;;;12.29;96.08;101745.25;5095694;28;20028;-90
2022/09/11 04:36:20;;;;;;;3.27;2.77;;;;;;;12.27;96.04;101744.41;5095211;28;20056;-90
2022/09/11 04:38:46;;;;;;;2.77;2.50;;;;;;;12.25;95.83;101754.81;5095450;28;20082;-90
2022/09/11 04:41:12;;;;;;;;;;;;;;;12.25;95.96;101753.97;5096138;28;20035;-90
2022/09/11 04:43:41;;;;;;;2.90;2.60;;;;;;;12.23;96.03;101755.72;5106282;28;20244;-90
2022/09/11 04:46:13;;;;;;;2.92;2.60;;;;;;;12.22;96.19;101746.19;5116195;28;20042;-90
2022/09/11 04:48:46;;;;;;;3.45;2.95;;;;;;;12.22;95.96;101760.03;5115713;28;20043;-90
2022/09/11 04:51:19;;;;;;;3.25;2.92;;;;;;;12.20;96.09;101757.47;5116169;28;20042;-90
2022/09/11 04:53:48;;;;;;;3.58;3.03;;;;;;;12.19;96.00;101760.94;5115678;28;20016;-90
2022/09/11 04:56:13;;;;;;;3.33;2.90;;;;;;;12.17;95.87;101765.28;5115562;28;20054;-90
2022/09/11 04:58:39;;;;;;;3.63;3.10;;;;;;;12.14;95.78;101765.34;5116111;28;20463;-90
2022/09/11 05:01:08;;;;;;;3.33;2.83;;;;;;;12.12;95.88;101764.47;5097986;27;20047;-90
2022/09/11 05:03:34;;;;;;;3.13;2.80;;;;;;;12.09;95.96;101755.81;5095389;28;20028;-90
2022/09/11 05:06:04;;;;;;;3.30;2.80;;;;;;;12.09;95.79;101763.63;5095291;28;20022;-91
2022/09/11 05:08:38;;;;;;;3.28;2.85;;;;;;;12.05;96.06;101752.34;5094905;28;20122;-91
2022/09/11 05:11:04;;;;;;;3.20;2.90;;;;;;;12.03;95.99;101757.59;5095395;28;20055;-90
2022/09/11 05:13:32;;;;;;;3.40;2.80;;;;;;;12.02;95.80;101760.22;5095002;28;20032;-90
2022/09/11 05:16:05;;;;;;;4.03;3.22;;;;;;;12.00;96.15;101765.41;5094953;28;20092;-91
2022/09/11 05:18:30;;;;;;;3.58;2.95;;;;;;;11.96;95.91;101768.00;5094485;28;20031;-91
2022/09/11 05:21:00;;;;;;;4.03;3.30;;;;;;;11.96;96.05;101773.22;5094685;28;20020;-91
2022/09/11 05:23:26;;;;;;;3.20;2.90;;;;;;;11.94;95.83;101781.03;5095154;28;20457;-91
2022/09/11 05:25:56;;;;;;;2.90;2.60;;;;;;;11.93;96.00;101786.25;5094465;28;20472;-91
2022/09/11 05:28:22;;;;;;;3.47;3.05;;;;;;;11.89;96.12;101783.66;5110720;28;20024;-89
2022/09/11 05:30:47;;;;;;;3.47;3.00;;;;;;;11.92;96.05;101789.72;5114870;28;20023;-90
2022/09/11 05:33:13;;;;;;;3.80;2.93;;;;;;;11.94;96.01;101800.97;5115198;28;20023;-92
2022/09/11 05:35:38;;;;;;;3.67;2.87;;;;;;;11.97;96.31;101803.56;5114880;28;20119;-91
2022/09/11 05:38:03;;;;;;;4.30;3.30;;;;;;;11.98;95.91;101810.50;5116111;28;20031;-96
2022/09/11 05:40:28;;;;;;;4.33;3.30;;;;;;;11.98;96.01;101814.00;5115802;28;20126;-96
2022/09/11 05:42:54;;;;;;;3.13;2.80;;;;;;;12.00;96.16;101821.78;5120363;28;20032;-96
2022/09/11 05:45:21;;;;;;;2.73;2.53;;;;;;;11.99;96.45;101822.66;5117349;28;20024;-96
2022/09/11 05:47:46;;;;;;;3.58;2.70;;;;;;;12.03;96.20;101826.97;5106673;28;20050;-82
2022/09/11 05:50:13;;;;;;;3.00;2.70;;;;;;;12.07;96.29;101826.06;5093777;28;20027;-88
2022/09/11 05:52:39;;;;;;;3.55;2.90;;;;;;;12.09;96.32;101826.09;5091425;28;20036;-82
2022/09/11 05:55:10;;;;;;;3.20;2.80;;;;;;;12.12;96.16;101828.63;5093466;28;20080;-83
2022/09/11 05:57:35;;;;;;;3.15;2.70;;;;;;;12.14;96.09;101838.19;5093041;28;20020;-83
2022/09/11 06:00:02;;;;;;;3.47;2.67;;;;;;;12.18;96.16;101836.44;5092418;28;20032;-82
2022/09/11 06:02:27;;;;;;;;;;;;;;;12.21;95.99;101833.81;5095087;28;20024;-90
2022/09/11 06:04:52;;;;;;;3.97;3.10;;;;;;;12.20;96.24;101835.53;5093908;28;19912;-90
2022/09/11 06:07:18;;;;;;;3.70;2.93;;;;;;;12.23;96.24;101847.66;5094309;28;20424;-90
2022/09/11 06:09:43;;;;;;;3.00;2.70;;;;;;;12.24;95.96;101852.00;5094105;28;20032;-91
2022/09/11 06:12:11;;;;;;;2.97;2.67;;;;;;;12.27;96.20;101848.53;5094180;28;20047;-90
2022/09/11 06:14:37;;;;;;;3.45;2.92;;;;;;;12.30;96.18;101851.09;5093435;28;20491;-90
2022/09/11 06:17:02;;;;;;;3.30;2.88;;;;;;;12.36;96.21;101854.53;5094425;28;20020;-91
2022/09/11 06:19:28;;;;;;;3.20;2.90;;;;;;;12.41;95.96;101851.03;5093843;28;20043;-90
2022/09/11 06:21:53;;;;;;;3.20;2.90;;;;;;;12.44;96.22;101856.22;5093932;28;20020;-90
2022/09/11 06:24:18;;;;;;;4.23;3.47;;;;;;;12.48;95.84;101857.91;5093992;28;20027;-91
2022/09/11 06:26:57;;;;;;;3.43;3.00;;;;;;;12.50;95.95;101858.78;5094055;28;20047;-90
2022/09/11 06:29:22;;;;;;;3.15;2.85;;;;;;;12.52;96.33;101870.06;5092797;28;20139;-90
2022/09/11 06:31:50;;;;;;;3.13;2.83;;;;;;;12.48;96.15;101860.53;5107527;28;20048;-90
2022/09/11 06:34:15;;;;;;;3.10;2.80;;;;;;;12.50;96.45;101866.59;5114121;28;20079;-91
2022/09/11 06:36:42;;;;;;;2.93;2.63;;;;;;;12.55;96.41;101869.16;5113226;28;20119;-89
2022/09/11 06:39:21;;;;;;;;;;;;;;;12.62;96.26;101873.44;5114471;28;20092;-88
2022/09/11 06:41:47;;;;;;;3.65;3.03;;;;;;;12.63;96.80;101869.97;5113168;28;20019;-88
2022/09/11 06:44:13;;;;;;;4.10;3.00;;;;;;;12.69;96.63;101874.25;5114284;28;20456;-90
2022/09/11 06:46:39;;;;;;;3.75;3.15;;;;;;;12.78;96.30;101884.59;5111826;28;20046;-91
2022/09/11 06:49:18;;;;;;;2.90;2.60;;;;;;;12.84;96.53;101884.56;5093180;28;20032;-90
2022/09/11 06:51:44;;;;;;;4.28;3.40;;;;;;;12.88;97.22;101882.78;5092105;28;20093;-89
2022/09/11 06:54:10;;;;;;;3.47;3.00;;;;;;;12.91;96.51;101890.59;5093288;28;20480;-88
2022/09/11 06:56:35;;;;;;;3.57;3.13;;;;;;;13.00;96.55;101892.28;5093373;28;20073;-86
2022/09/11 06:59:01;;;;;;;3.00;2.70;;;;;;;13.06;96.29;101887.84;5092887;28;20020;-86
2022/09/11 07:01:27;;;;;;;3.73;3.30;;;;;;;13.15;96.46;101888.66;5092003;28;20044;-87
2022/09/11 07:03:53;;;;;;;2.50;2.30;;;;;;;13.21;96.90;101881.66;5091970;28;20020;-88
2022/09/11 07:06:24;;;;;;;2.65;2.45;;;;;;;13.23;96.49;101894.66;5092719;28;20078;-87
2022/09/11 07:08:56;;;;;;;2.60;2.40;;;;;;;13.26;96.55;101892.03;5092484;28;20054;-87
2022/09/11 07:11:21;;;;;;;2.38;2.17;;;;;;;13.33;96.68;101888.47;5092188;28;20024;-87
2022/09/11 07:13:47;;;;;;;2.70;2.50;;;;;;;13.40;96.08;101892.75;5092723;28;20024;-87
2022/09/11 07:16:13;;;;;;;2.90;2.60;;;;;;;13.47;96.37;101892.72;5093791;28;20059;-87
2022/09/11 07:18:40;;;;;;;3.10;2.80;;;;;;;13.54;96.19;101886.53;5091741;28;20460;-87
2022/09/11 07:21:10;;;;;;;2.58;2.38;;;;;;;13.61;96.50;101882.13;5092261;28;20437;-87
2022/09/11 07:23:35;;;;;;;2.97;2.60;;;;;;;13.66;96.44;101880.34;5092500;28;20020;-87
2022/09/11 07:26:03;;;;;;;3.30;2.87;;;;;;;13.72;96.35;101883.75;5092033;28;20077;-87
2022/09/11 07:28:28;;;;;;;2.90;2.58;;;;;;;13.81;96.33;101881.91;5092284;28;20024;-88
2022/09/11 07:30:53;;;;;;;3.10;2.77;;;;;;;13.88;96.87;101883.53;5091598;28;20074;-88
2022/09/11 07:33:19;;;;;;;3.63;3.03;;;;;;;13.85;96.28;101892.28;5092601;28;20031;-88
2022/09/11 07:35:44;;;;;;;4.40;3.20;;;;;;;13.90;96.05;101887.00;5089744;28;20040;-87
2022/09/11 07:38:09;;;;;;;3.13;2.73;;;;;;;13.96;96.06;101889.50;5092018;28;20582;-88
2022/09/11 07:40:35;;;;;;;2.97;2.47;;;;;;;14.07;96.63;101888.53;5093073;28;20020;-87
2022/09/11 07:43:00;;;;;;;2.70;2.43;;;;;;;14.19;97.23;101890.97;5107144;28;20027;-88
2022/09/11 07:45:26;;;;;;;2.40;2.20;;;;;;;14.29;96.50;101889.09;5115493;28;20114;-88
2022/09/11 07:47:52;;;;;;;2.88;2.45;;;;;;;14.39;96.24;101882.84;5116490;28;20027;-88
2022/09/11 07:50:17;;;;;;;3.37;2.60;;;;;;;14.49;96.96;101881.81;5116597;28;20024;-88
2022/09/11 07:52:43;;;;;;;5.57;3.67;;;;;;;14.51;95.77;101879.22;5115195;28;20027;-88
2022/09/11 07:55:08;;;;;;;3.60;2.80;;;;;;;14.51;96.55;101892.28;5116163;28;20034;-88
2022/09/11 07:57:33;;;;;;;3.57;2.77;;;;;;;14.58;96.54;101885.22;5116493;28;20031;-88
2022/09/11 07:59:59;;;;;;;3.07;2.37;;;;;;;14.65;96.11;101892.91;5115411;28;20023;-88
2022/09/11 08:02:24;;;;;;;4.27;2.73;;;;;;;14.74;96.30;101898.94;5116119;28;20024;-88
2022/09/11 08:04:50;;;;;;;3.57;2.77;;;;;;;14.77;96.08;101904.97;5115690;28;20022;-88
2022/09/11 08:07:16;;;;;;;4.30;3.00;;;;;;;14.83;95.94;101909.22;5113802;28;20401;-87
2022/09/11 08:09:41;;;;;;;4.65;3.13;;;;;;;14.87;96.00;101907.41;5111948;28;20020;-89
2022/09/11 08:12:07;;;;;;;4.00;3.00;;;;;;;14.92;96.78;101911.69;5095365;28;20024;-87
2022/09/11 08:14:32;;;;;;;4.30;3.00;;;;;;;15.04;96.58;101920.22;5093306;28;20543;-88
2022/09/11 08:16:57;;;;;;;4.40;3.20;;;;;;;15.13;96.61;101917.44;5096092;28;20027;-95
2022/09/11 08:19:23;;;;;;;4.30;3.27;;;;;;;15.18;95.86;101914.75;5096075;28;20391;-90
2022/09/11 08:21:49;;;;;;;6.53;3.60;;;;;;;15.27;96.02;101915.44;5111921;28;20421;-90
2022/09/11 08:24:16;;;;;;;6.30;3.95;;;;;;;15.36;96.55;101919.66;5116557;28;20544;-96
2022/09/11 08:26:41;;;;;;;8.02;4.32;;;;;;;15.35;95.94;101917.94;5116768;28;20019;-94
2022/09/11 08:29:07;;;;;;;7.23;4.17;;;;;;;15.37;96.60;101921.34;5115876;28;20020;-96
2022/09/11 08:31:34;;;;;;;7.53;4.17;;;;;;;15.40;96.47;101923.94;5096648;28;20024;-96
2022/09/11 08:33:59;;;;;;;5.32;3.20;;;;;;;15.50;96.63;101931.59;5096615;28;20027;-95
2022/09/11 08:36:25;;;;;;;5.23;3.40;;;;;;;15.64;96.68;101931.34;5115309;28;20043;-95
2022/09/11 08:38:51;;;;;;;6.37;3.67;;;;;;;15.79;95.65;101933.66;5116335;28;20020;-95
2022/09/11 08:41:22;;;;;;;8.48;4.53;;;;;;;15.90;96.84;101942.19;5098639;22;20900;-95
2022/09/11 08:43:59;;;;;;;10.50;5.32;;;;;;;15.98;97.12;101946.44;5075933;28;20131;-96
2022/09/11 08:46:29;;;;;;;11.05;5.57;;;;;;;16.13;95.82;101940.84;5076092;28;20038;-95
2022/09/11 08:49:09;;;;;;;9.27;5.20;;;;;;;16.44;95.72;101941.97;5076779;28;20028;-96
2022/09/11 08:51:35;;;;;;;8.75;4.80;;;;;;;16.72;96.46;101936.09;5076008;28;20033;-95
2022/09/11 08:54:02;;;;;;;10.63;5.53;;;;;;;16.95;95.64;101939.03;5077775;28;20021;-96
2022/09/11 08:56:29;;;;;;;10.38;5.40;;;;;;;17.12;95.61;101932.50;5075871;28;20286;-96
2022/09/11 08:59:07;;;;;;;11.15;5.90;;;;;;;17.25;93.42;101938.28;5075902;28;20423;-96
2022/09/11 09:01:51;;;;;;;13.07;6.63;;;;;;;17.29;93.26;101932.94;5059315;28;20061;-97
2022/09/11 09:05:00;;;;;;;19.73;10.60;;;;;;;17.33;92.56;101931.09;5061988;28;20036;-96
2022/09/11 09:07:32;;;;;;;17.60;8.82;;;;;;;17.49;93.40;101936.81;4993639;28;20043;-96
2022/09/11 09:10:20;;;;;;;16.08;8.18;;;;;;;17.73;92.92;101937.88;5056538;28;20029;-96
2022/09/11 09:13:22;;;;;;;17.77;9.60;;;;;;;17.93;93.04;101939.06;5058013;28;20021;-96
2022/09/11 09:16:30;;;;;;;17.05;9.05;;;;;;;18.12;91.59;101944.69;5059615;28;20064;-96
2022/09/11 09:19:05;;;;;;;16.02;8.20;;;;;;;18.26;91.56;101940.78;5055495;28;20059;-96
2022/09/11 09:21:54;;;;;;;12.95;7.03;;;;;;;18.51;92.19;101943.53;5055405;28;20094;-96
2022/09/11 09:24:20;;;;;;;14.65;7.18;;;;;;;18.73;91.17;101943.72;5055284;28;20036;-96
2022/09/11 09:26:51;;;;;;;8.50;5.00;;;;;;;18.93;91.55;101950.97;5055129;28;20025;-95
2022/09/11 09:29:22;;;;;;;17.98;9.55;;;;;;;19.12;85.97;101951.22;5056888;28;20083;-96
2022/09/11 09:31:52;;;;;;;19.45;11.25;;;;;;;19.20;86.66;101958.88;5057221;28;20098;-96
2022/09/11 09:34:19;;;;;;;16.60;8.77;;;;;;;19.28;88.79;101954.19;5054935;28;20062;-96
2022/09/11 09:36:56;;;;;;;12.25;6.95;;;;;;;19.49;89.08;101954.34;5054914;28;20029;-96
2022/09/11 09:39:22;;;;;;;;;;;;;;;19.61;88.88;101960.97;5055195;28;20033;-96
2022/09/11 09:42:01;;;;;;;14.15;7.70;;;;;;;19.66;85.29;101955.53;5055146;28;19928;-96
2022/09/11 09:44:52;;;;;;;16.67;9.15;;;;;;;19.70;81.27;101960.63;5055721;28;20025;-96
2022/09/11 09:47:17;;;;;;;18.80;11.10;;;;;;;19.68;82.24;101964.25;5058584;28;20578;-96
2022/09/11 09:49:44;;;;;;;19.80;11.77;;;;;;;19.42;82.59;101961.59;5063530;28;20107;-96
2022/09/11 09:52:23;;;;;;;17.45;10.07;;;;;;;19.26;85.87;101960.44;5074847;28;20016;-96
2022/09/11 09:55:03;;;;;;;15.20;8.45;;;;;;;19.22;84.85;101959.69;5074560;28;20024;-96
2022/09/11 09:57:33;;;;;;;11.65;6.93;;;;;;;19.24;85.32;101954.34;5074181;28;20456;-95
2022/09/11 10:00:07;;;;;;;12.07;6.75;;;;;;;19.43;86.32;101957.22;5074380;28;20484;-96
2022/09/11 10:02:38;;;;;;;10.18;5.85;;;;;;;19.64;86.35;101947.72;5074367;28;20048;-96
2022/09/11 10:05:26;;;;;;;13.80;7.43;;;;;;;19.77;84.50;101953.38;5073770;28;20469;-96
2022/09/11 10:08:00;;;;;;;13.00;6.88;;;;;;;19.88;80.08;101955.63;5074018;28;20024;-95
2022/09/11 10:10:31;;;;;;;18.90;10.90;;;;;;;19.80;79.64;101950.66;5074020;28;20017;-96
2022/09/11 10:13:03;;;;;;;16.83;9.25;;;;;;;19.67;81.78;101957.25;5073732;28;20032;-92
2022/09/11 10:15:28;;;;;;;12.27;7.22;;;;;;;19.56;82.78;101955.88;5073534;28;20476;-88
2022/09/11 10:18:31;;;;;;;13.03;7.03;;;;;;;19.52;84.62;101959.53;5073742;28;20032;-95
2022/09/11 10:21:11;;;;;;;10.95;6.20;;;;;;;19.55;83.74;101959.41;5073942;28;20492;-95
2022/09/11 10:23:52;;;;;;;10.32;5.70;;;;;;;19.61;83.90;101958.34;5073878;28;20037;-94
2022/09/11 10:26:24;;;;;;;9.10;5.70;;;;;;;19.65;83.38;101959.94;5074023;28;20431;-95
2022/09/11 10:28:51;;;;;;;10.57;6.00;;;;;;;19.62;84.19;101957.44;5073907;28;20048;-94
2022/09/11 10:31:17;;;;;;;10.25;6.10;;;;;;;19.59;83.98;101957.53;5074204;28;20028;-94
2022/09/11 10:39:00;;;;;;;20.73;12.35;;;;;;;19.27;78.42;101952.47;5063657;22;20049;-95
2022/09/11 10:41:48;;;;;;;20.58;12.45;;;;;;;19.09;80.73;101953.09;5053357;28;20036;-94
2022/09/11 10:44:21;;;;;;;18.67;11.00;;;;;;;19.23;79.12;101952.63;5052549;28;20024;-86
2022/09/11 10:47:05;;;;;;;17.77;9.57;;;;;;;19.47;81.77;101950.06;5057691;28;20055;-96
2022/09/11 10:49:32;;;;;;;12.30;7.05;;;;;;;19.74;81.92;101954.34;5038106;28;20024;-96
2022/09/11 10:52:17;;;;;;;14.95;8.32;;;;;;;20.05;77.86;101963.78;5038352;28;20096;-96
2022/09/11 10:55:00;;;;;;;18.73;11.45;;;;;;;20.10;79.40;101955.72;5042406;28;20041;-96
2022/09/11 10:57:44;;;;;;;15.30;9.20;;;;;;;20.26;74.40;101960.41;5038027;28;20429;-96
2022/09/11 11:02:49;;;;;;;12.63;7.10;;;;;;;19.97;66.14;101957.06;5731805;22;20063;-90
2022/09/11 11:05:30;;;;;;;13.10;7.18;;;;;;;19.90;68.79;101961.72;5074204;28;20016;-93
2022/09/11 11:08:07;;;;;;;12.68;7.25;;;;;;;20.05;71.42;101955.88;5073035;28;20124;-92
2022/09/11 11:10:50;;;;;;;14.18;8.32;;;;;;;20.25;71.86;101951.63;5072792;28;20093;-93
2022/09/11 11:13:41;;;;;;;9.13;5.60;;;;;;;20.55;70.30;101958.41;5073511;28;20051;-92
2022/09/11 11:16:18;;;;;;;9.55;6.20;;;;;;;20.79;71.29;101957.44;5072333;28;20028;-92
2022/09/11 11:19:00;;;;;;;7.07;4.80;;;;;;;21.01;74.08;101943.38;5075941;28;20063;-92
2022/09/11 11:21:50;;;;;;;6.72;4.47;;;;;;;21.16;72.46;101943.66;5077153;28;20094;-92
2022/09/11 11:24:39;;;;;;;6.07;4.50;;;;;;;21.34;72.76;101956.03;5076167;28;20029;-91
2022/09/11 11:27:30;;;;;;;4.78;3.60;;;;;;;21.54;73.99;101949.91;5076923;28;20025;-92
2022/09/11 11:30:10;;;;;;;4.78;3.65;;;;;;;21.71;70.49;101953.59;5076214;28;20119;-90
2022/09/11 11:32:45;;;;;;;5.43;3.83;;;;;;;21.83;70.37;101952.19;5076954;28;20020;-90
2022/09/11 11:35:21;;;;;;;4.57;3.60;;;;;;;21.89;71.69;101942.22;5076797;28;20020;-89
2022/09/11 11:37:48;;;;;;;8.27;4.45;;;;;;;21.98;71.64;101943.56;5076005;28;20028;-89
2022/09/11 11:40:27;;;;;;;4.68;3.40;;;;;;;22.13;72.96;101943.78;5076240;28;20039;-90
2022/09/11 11:43:16;;;;;;;3.50;3.10;;;;;;;22.35;72.98;101935.66;5076581;28;20024;-89
2022/09/11 11:46:00;;;;;;;6.43;4.32;;;;;;;22.48;68.50;101936.81;5075755;28;20493;-89
2022/09/11 11:48:48;;;;;;;9.98;6.10;;;;;;;22.44;68.84;101935.28;5076314;28;20517;-89
2022/09/11 11:51:18;;;;;;;5.55;3.72;;;;;;;22.49;70.55;101938.53;5076076;28;20492;-89
2022/09/11 11:53:58;;;;;;;6.63;4.47;;;;;;;22.57;69.95;101934.69;5076127;28;20023;-89